KTHA

Tullahoma Regional Arpt / Wm Northern Field Airport

Tullahoma, Tennessee, USA
METAR KTHA 241435Z AUTO 26007G15KT 10SM SCT019 BKN039 28/24 A3001 RMK A01
Observed Flight Rules
Jun-24 @ 14:35 UTC (32 minutes ago) Visual Flight Rules
Wind Visibility Clouds
260° at 7 knots
 Gusting to 15 knots
10 miles
  • Scattered at 1,900' AGL
  • Broken at 3,900' AGL
Temperatures Readings
Current 28°C / 82°F
Dewpoint 24°C / 75°F
Humidity 79%
Altimeter 30.01" Hg
Pressure 1016 hPa
Elevation 331
METAR KTHA 241435Z AUTO 26007G15KT 10SM SCT019 BKN039 28/24 A3001 RMK A01
Observed Flight Rules
Jun-24 @ 14:35 UTC
(32 minutes ago)
VFR
Wind Visibility
260° at 7 knots
 Gusting to 15 knots
10 miles
Clouds
  • Scattered at 1,900' AGL
  • Broken at 3,900' AGL
Temperature Dewpoint
28°C / 82°F 24°C / 75°F
Humidity Altimeter Pressure
79% 30.01" Hg 1016 hPa